sensor_id;sensor_type;location;lat;lon;timestamp;temperature;humidity
10802;DHT22;5453;50.852;7.102;2023-06-04T00:00:29;15.40;73.80
10802;DHT22;5453;50.852;7.102;2023-06-04T00:03:02;15.30;74.00
10802;DHT22;5453;50.852;7.102;2023-06-04T00:05:35;15.20;74.40
10802;DHT22;5453;50.852;7.102;2023-06-04T00:08:07;15.20;74.80
10802;DHT22;5453;50.852;7.102;2023-06-04T00:10:39;15.10;74.50
10802;DHT22;5453;50.852;7.102;2023-06-04T00:13:11;15.10;74.20
10802;DHT22;5453;50.852;7.102;2023-06-04T00:15:43;15.10;74.20
10802;DHT22;5453;50.852;7.102;2023-06-04T00:18:15;15.10;74.00
10802;DHT22;5453;50.852;7.102;2023-06-04T00:20:49;15.00;74.00
10802;DHT22;5453;50.852;7.102;2023-06-04T00:23:21;14.90;74.60
10802;DHT22;5453;50.852;7.102;2023-06-04T00:25:53;14.90;74.70
10802;DHT22;5453;50.852;7.102;2023-06-04T00:28:25;14.90;74.80
10802;DHT22;5453;50.852;7.102;2023-06-04T00:30:57;14.80;75.30
10802;DHT22;5453;50.852;7.102;2023-06-04T00:33:29;14.70;76.20
10802;DHT22;5453;50.852;7.102;2023-06-04T00:36:03;14.70;76.60
10802;DHT22;5453;50.852;7.102;2023-06-04T00:38:35;14.60;77.10
10802;DHT22;5453;50.852;7.102;2023-06-04T00:41:07;14.50;77.30
10802;DHT22;5453;50.852;7.102;2023-06-04T00:43:39;14.50;77.70
10802;DHT22;5453;50.852;7.102;2023-06-04T00:46:16;14.40;78.10
10802;DHT22;5453;50.852;7.102;2023-06-04T00:48:48;14.40;78.70
10802;DHT22;5453;50.852;7.102;2023-06-04T00:51:22;14.30;79.20
10802;DHT22;5453;50.852;7.102;2023-06-04T00:53:54;14.30;79.80
10802;DHT22;5453;50.852;7.102;2023-06-04T00:56:26;14.20;80.30
10802;DHT22;5453;50.852;7.102;2023-06-04T00:58:59;14.10;80.70
10802;DHT22;5453;50.852;7.102;2023-06-04T01:01:44;14.10;81.10
10802;DHT22;5453;50.852;7.102;2023-06-04T01:04:27;14.00;81.50
10802;DHT22;5453;50.852;7.102;2023-06-04T01:07:04;14.00;82.00
10802;DHT22;5453;50.852;7.102;2023-06-04T01:09:36;13.90;82.70
10802;DHT22;5453;50.852;7.102;2023-06-04T01:12:10;13.80;83.20
10802;DHT22;5453;50.852;7.102;2023-06-04T01:14:43;13.80;83.70
10802;DHT22;5453;50.852;7.102;2023-06-04T01:17:19;13.80;84.10
10802;DHT22;5453;50.852;7.102;2023-06-04T01:20:28;13.80;84.50
10802;DHT22;5453;50.852;7.102;2023-06-04T01:23:17;13.70;84.50
10802;DHT22;5453;50.852;7.102;2023-06-04T01:26:00;13.70;85.00
10802;DHT22;5453;50.852;7.102;2023-06-04T01:28:35;13.60;85.20
10802;DHT22;5453;50.852;7.102;2023-06-04T01:31:08;13.60;85.40
10802;DHT22;5453;50.852;7.102;2023-06-04T01:33:41;13.60;85.60
10802;DHT22;5453;50.852;7.102;2023-06-04T01:36:13;13.60;86.10
10802;DHT22;5453;50.852;7.102;2023-06-04T01:38:47;13.50;86.50
10802;DHT22;5453;50.852;7.102;2023-06-04T01:41:19;13.50;86.90
10802;DHT22;5453;50.852;7.102;2023-06-04T01:43:51;13.40;87.60
10802;DHT22;5453;50.852;7.102;2023-06-04T01:46:24;13.40;88.90
10802;DHT22;5453;50.852;7.102;2023-06-04T01:48:56;13.30;88.80
10802;DHT22;5453;50.852;7.102;2023-06-04T01:51:28;13.30;89.30
10802;DHT22;5453;50.852;7.102;2023-06-04T01:54:02;13.20;89.80
10802;DHT22;5453;50.852;7.102;2023-06-04T01:56:34;13.20;90.20
10802;DHT22;5453;50.852;7.102;2023-06-04T01:59:06;13.20;90.40
10802;DHT22;5453;50.852;7.102;2023-06-04T02:01:38;13.10;90.60
10802;DHT22;5453;50.852;7.102;2023-06-04T02:04:10;13.10;91.00
10802;DHT22;5453;50.852;7.102;2023-06-04T02:06:42;13.10;91.10
10802;DHT22;5453;50.852;7.102;2023-06-04T02:09:16;13.10;91.10
10802;DHT22;5453;50.852;7.102;2023-06-04T02:11:48;13.10;91.30
10802;DHT22;5453;50.852;7.102;2023-06-04T02:14:20;13.10;91.60
10802;DHT22;5453;50.852;7.102;2023-06-04T02:16:52;13.00;91.60
10802;DHT22;5453;50.852;7.102;2023-06-04T02:19:24;13.00;91.40
10802;DHT22;5453;50.852;7.102;2023-06-04T02:21:58;13.00;91.50
10802;DHT22;5453;50.852;7.102;2023-06-04T02:24:31;12.90;91.60
10802;DHT22;5453;50.852;7.102;2023-06-04T02:27:03;12.90;91.70
10802;DHT22;5453;50.852;7.102;2023-06-04T02:29:36;12.90;91.90
10802;DHT22;5453;50.852;7.102;2023-06-04T02:32:09;12.80;92.10
10802;DHT22;5453;50.852;7.102;2023-06-04T02:34:41;12.80;92.40
10802;DHT22;5453;50.852;7.102;2023-06-04T02:37:13;12.70;92.60
10802;DHT22;5453;50.852;7.102;2023-06-04T02:39:47;12.70;92.90
10802;DHT22;5453;50.852;7.102;2023-06-04T02:42:19;12.60;93.10
10802;DHT22;5453;50.852;7.102;2023-06-04T02:44:51;12.60;93.40
10802;DHT22;5453;50.852;7.102;2023-06-04T02:47:23;12.60;93.60
10802;DHT22;5453;50.852;7.102;2023-06-04T02:49:55;12.60;93.90
10802;DHT22;5453;50.852;7.102;2023-06-04T02:52:27;12.50;93.90
10802;DHT22;5453;50.852;7.102;2023-06-04T02:55:00;12.50;94.10
10802;DHT22;5453;50.852;7.102;2023-06-04T02:57:33;12.40;94.20
10802;DHT22;5453;50.852;7.102;2023-06-04T03:00:06;12.40;94.60
10802;DHT22;5453;50.852;7.102;2023-06-04T03:02:44;12.40;94.80
10802;DHT22;5453;50.852;7.102;2023-06-04T03:05:17;12.30;95.00
10802;DHT22;5453;50.852;7.102;2023-06-04T03:07:49;12.30;95.20
10802;DHT22;5453;50.852;7.102;2023-06-04T03:10:23;12.20;95.20
10802;DHT22;5453;50.852;7.102;2023-06-04T03:12:55;12.20;95.40
10802;DHT22;5453;50.852;7.102;2023-06-04T03:15:27;12.20;95.60
10802;DHT22;5453;50.852;7.102;2023-06-04T03:17:59;12.10;96.00
10802;DHT22;5453;50.852;7.102;2023-06-04T03:20:32;12.10;96.30
10802;DHT22;5453;50.852;7.102;2023-06-04T03:23:08;12.10;96.50
10802;DHT22;5453;50.852;7.102;2023-06-04T03:25:42;12.00;96.80
10802;DHT22;5453;50.852;7.102;2023-06-04T03:28:15;12.00;97.00
10802;DHT22;5453;50.852;7.102;2023-06-04T03:30:49;12.00;97.30
10802;DHT22;5453;50.852;7.102;2023-06-04T03:33:26;11.90;97.40
10802;DHT22;5453;50.852;7.102;2023-06-04T03:35:58;11.90;97.50
10802;DHT22;5453;50.852;7.102;2023-06-04T03:38:30;11.90;97.60
10802;DHT22;5453;50.852;7.102;2023-06-04T03:41:04;11.90;97.70
10802;DHT22;5453;50.852;7.102;2023-06-04T03:43:36;11.90;97.60
10802;DHT22;5453;50.852;7.102;2023-06-04T03:46:11;11.90;98.10
10802;DHT22;5453;50.852;7.102;2023-06-04T03:48:43;11.90;97.90
10802;DHT22;5453;50.852;7.102;2023-06-04T03:51:15;11.90;98.10
10802;DHT22;5453;50.852;7.102;2023-06-04T03:53:49;11.80;98.30
10802;DHT22;5453;50.852;7.102;2023-06-04T03:56:23;11.80;98.60
10802;DHT22;5453;50.852;7.102;2023-06-04T03:58:57;11.80;98.80
10802;DHT22;5453;50.852;7.102;2023-06-04T04:01:30;11.80;99.10
10802;DHT22;5453;50.852;7.102;2023-06-04T04:04:02;11.80;99.40
10802;DHT22;5453;50.852;7.102;2023-06-04T04:06:35;11.80;99.60
10802;DHT22;5453;50.852;7.102;2023-06-04T04:09:08;11.80;99.80
10802;DHT22;5453;50.852;7.102;2023-06-04T04:11:42;11.80;99.90
10802;DHT22;5453;50.852;7.102;2023-06-04T04:14:14;11.80;99.90
10802;DHT22;5453;50.852;7.102;2023-06-04T04:16:47;11.80;99.90
10802;DHT22;5453;50.852;7.102;2023-06-04T04:19:19;11.80;99.90
10802;DHT22;5453;50.852;7.102;2023-06-04T04:21:51;11.90;99.90
10802;DHT22;5453;50.852;7.102;2023-06-04T04:24:25;11.90;99.90
10802;DHT22;5453;50.852;7.102;2023-06-04T04:27:03;11.90;99.90
10802;DHT22;5453;50.852;7.102;2023-06-04T04:29:36;12.00;99.90
10802;DHT22;5453;50.852;7.102;2023-06-04T04:32:10;12.00;99.90
10802;DHT22;5453;50.852;7.102;2023-06-04T04:34:53;12.00;99.90
10802;DHT22;5453;50.852;7.102;2023-06-04T04:37:31;12.10;99.90
10802;DHT22;5453;50.852;7.102;2023-06-04T04:40:05;12.10;99.90
10802;DHT22;5453;50.852;7.102;2023-06-04T04:42:45;12.20;99.90
10802;DHT22;5453;50.852;7.102;2023-06-04T04:45:19;12.20;99.90
10802;DHT22;5453;50.852;7.102;2023-06-04T04:47:54;12.30;99.90
10802;DHT22;5453;50.852;7.102;2023-06-04T04:50:26;12.40;99.90
10802;DHT22;5453;50.852;7.102;2023-06-04T04:52:59;12.60;99.90
10802;DHT22;5453;50.852;7.102;2023-06-04T04:55:32;13.00;99.90
10802;DHT22;5453;50.852;7.102;2023-06-04T04:58:06;13.40;99.60
10802;DHT22;5453;50.852;7.102;2023-06-04T05:00:38;13.80;98.20
10802;DHT22;5453;50.852;7.102;2023-06-04T05:03:11;14.20;97.30
10802;DHT22;5453;50.852;7.102;2023-06-04T05:05:43;14.50;95.80
10802;DHT22;5453;50.852;7.102;2023-06-04T05:08:17;14.70;95.40
10802;DHT22;5453;50.852;7.102;2023-06-04T05:10:50;14.90;94.60
10802;DHT22;5453;50.852;7.102;2023-06-04T05:13:23;15.10;94.10
10802;DHT22;5453;50.852;7.102;2023-06-04T05:16:04;15.30;93.60
10802;DHT22;5453;50.852;7.102;2023-06-04T05:18:39;15.50;93.50
10802;DHT22;5453;50.852;7.102;2023-06-04T05:21:14;15.60;93.60
10802;DHT22;5453;50.852;7.102;2023-06-04T05:23:52;15.70;93.50
10802;DHT22;5453;50.852;7.102;2023-06-04T05:26:27;15.90;93.10
10802;DHT22;5453;50.852;7.102;2023-06-04T05:29:05;16.20;92.50
10802;DHT22;5453;50.852;7.102;2023-06-04T05:31:41;16.40;92.40
10802;DHT22;5453;50.852;7.102;2023-06-04T05:34:16;16.40;92.40
10802;DHT22;5453;50.852;7.102;2023-06-04T05:36:50;16.60;92.30
10802;DHT22;5453;50.852;7.102;2023-06-04T05:39:24;16.70;92.10
10802;DHT22;5453;50.852;7.102;2023-06-04T05:42:02;16.80;92.50
10802;DHT22;5453;50.852;7.102;2023-06-04T05:44:36;17.00;92.90
10802;DHT22;5453;50.852;7.102;2023-06-04T05:47:09;17.10;93.00
10802;DHT22;5453;50.852;7.102;2023-06-04T05:49:42;17.20;93.20
10802;DHT22;5453;50.852;7.102;2023-06-04T05:52:15;17.30;92.90
10802;DHT22;5453;50.852;7.102;2023-06-04T05:54:49;17.40;92.40
10802;DHT22;5453;50.852;7.102;2023-06-04T05:57:22;17.40;92.20
10802;DHT22;5453;50.852;7.102;2023-06-04T05:59:55;17.40;92.20
10802;DHT22;5453;50.852;7.102;2023-06-04T06:02:27;17.50;92.80
10802;DHT22;5453;50.852;7.102;2023-06-04T06:05:01;17.70;91.40
10802;DHT22;5453;50.852;7.102;2023-06-04T06:07:33;17.90;90.60
10802;DHT22;5453;50.852;7.102;2023-06-04T06:10:06;18.20;89.50
10802;DHT22;5453;50.852;7.102;2023-06-04T06:12:39;18.40;88.20
10802;DHT22;5453;50.852;7.102;2023-06-04T06:15:13;18.70;86.40
10802;DHT22;5453;50.852;7.102;2023-06-04T06:17:47;18.90;85.70
10802;DHT22;5453;50.852;7.102;2023-06-04T06:20:20;19.00;84.80
10802;DHT22;5453;50.852;7.102;2023-06-04T06:22:53;19.20;82.90
10802;DHT22;5453;50.852;7.102;2023-06-04T06:25:27;19.40;81.50
10802;DHT22;5453;50.852;7.102;2023-06-04T06:28:07;19.50;80.40
10802;DHT22;5453;50.852;7.102;2023-06-04T06:30:42;19.70;78.50
10802;DHT22;5453;50.852;7.102;2023-06-04T06:33:15;19.80;78.10
10802;DHT22;5453;50.852;7.102;2023-06-04T06:35:47;20.00;76.80
10802;DHT22;5453;50.852;7.102;2023-06-04T06:38:19;20.10;75.90
10802;DHT22;5453;50.852;7.102;2023-06-04T06:40:51;20.10;75.30
10802;DHT22;5453;50.852;7.102;2023-06-04T06:43:23;20.00;75.10
10802;DHT22;5453;50.852;7.102;2023-06-04T06:45:56;20.00;75.10
10802;DHT22;5453;50.852;7.102;2023-06-04T06:48:28;20.00;75.40
10802;DHT22;5453;50.852;7.102;2023-06-04T06:51:00;20.10;75.00
10802;DHT22;5453;50.852;7.102;2023-06-04T06:53:32;20.00;74.40
10802;DHT22;5453;50.852;7.102;2023-06-04T06:56:05;20.20;75.20
10802;DHT22;5453;50.852;7.102;2023-06-04T06:58:37;20.40;74.10
10802;DHT22;5453;50.852;7.102;2023-06-04T07:01:10;20.60;73.20
10802;DHT22;5453;50.852;7.102;2023-06-04T07:03:42;20.70;72.60
10802;DHT22;5453;50.852;7.102;2023-06-04T07:06:15;20.70;72.40
10802;DHT22;5453;50.852;7.102;2023-06-04T07:08:47;20.70;71.80
10802;DHT22;5453;50.852;7.102;2023-06-04T07:11:19;20.90;71.50
10802;DHT22;5453;50.852;7.102;2023-06-04T07:13:52;21.10;71.00
10802;DHT22;5453;50.852;7.102;2023-06-04T07:16:25;21.20;71.30
10802;DHT22;5453;50.852;7.102;2023-06-04T07:18:58;21.50;71.20
10802;DHT22;5453;50.852;7.102;2023-06-04T07:21:30;21.60;69.20
10802;DHT22;5453;50.852;7.102;2023-06-04T07:24:02;21.50;68.70
10802;DHT22;5453;50.852;7.102;2023-06-04T07:26:34;21.60;69.00
10802;DHT22;5453;50.852;7.102;2023-06-04T07:29:06;21.70;69.40
10802;DHT22;5453;50.852;7.102;2023-06-04T07:31:41;21.80;69.30
10802;DHT22;5453;50.852;7.102;2023-06-04T07:34:13;21.90;69.50
10802;DHT22;5453;50.852;7.102;2023-06-04T07:36:45;22.10;68.90
10802;DHT22;5453;50.852;7.102;2023-06-04T07:39:18;22.30;68.60
10802;DHT22;5453;50.852;7.102;2023-06-04T07:41:50;22.50;67.80
10802;DHT22;5453;50.852;7.102;2023-06-04T07:44:22;22.60;67.10
10802;DHT22;5453;50.852;7.102;2023-06-04T07:46:56;22.70;67.30
10802;DHT22;5453;50.852;7.102;2023-06-04T07:49:28;22.90;66.70
10802;DHT22;5453;50.852;7.102;2023-06-04T07:52:00;23.00;66.30
10802;DHT22;5453;50.852;7.102;2023-06-04T07:54:32;23.10;64.70
10802;DHT22;5453;50.852;7.102;2023-06-04T07:57:05;23.10;64.20
10802;DHT22;5453;50.852;7.102;2023-06-04T07:59:37;23.20;65.10
10802;DHT22;5453;50.852;7.102;2023-06-04T08:02:10;23.40;65.70
10802;DHT22;5453;50.852;7.102;2023-06-04T08:04:43;23.70;65.00
10802;DHT22;5453;50.852;7.102;2023-06-04T08:07:15;23.80;63.90
10802;DHT22;5453;50.852;7.102;2023-06-04T08:09:47;24.00;63.40
10802;DHT22;5453;50.852;7.102;2023-06-04T08:12:20;24.10;63.10
10802;DHT22;5453;50.852;7.102;2023-06-04T08:14:52;24.40;62.70
10802;DHT22;5453;50.852;7.102;2023-06-04T08:17:28;24.50;61.70
10802;DHT22;5453;50.852;7.102;2023-06-04T08:20:00;24.90;61.60
10802;DHT22;5453;50.852;7.102;2023-06-04T08:22:37;25.30;60.00
10802;DHT22;5453;50.852;7.102;2023-06-04T08:25:09;25.60;60.60
10802;DHT22;5453;50.852;7.102;2023-06-04T08:27:42;26.00;57.80
10802;DHT22;5453;50.852;7.102;2023-06-04T08:30:14;26.40;58.00
10802;DHT22;5453;50.852;7.102;2023-06-04T08:32:48;26.80;57.30
10802;DHT22;5453;50.852;7.102;2023-06-04T08:35:20;27.30;55.70
10802;DHT22;5453;50.852;7.102;2023-06-04T08:37:52;28.10;54.10
10802;DHT22;5453;50.852;7.102;2023-06-04T08:40:25;28.90;51.40
10802;DHT22;5453;50.852;7.102;2023-06-04T08:42:58;29.80;48.90
10802;DHT22;5453;50.852;7.102;2023-06-04T08:45:33;30.20;47.30
10802;DHT22;5453;50.852;7.102;2023-06-04T08:48:12;31.10;45.40
10802;DHT22;5453;50.852;7.102;2023-06-04T08:50:46;31.30;43.50
10802;DHT22;5453;50.852;7.102;2023-06-04T08:53:19;31.60;42.80
10802;DHT22;5453;50.852;7.102;2023-06-04T08:55:53;32.20;43.00
10802;DHT22;5453;50.852;7.102;2023-06-04T08:58:25;32.50;41.60
10802;DHT22;5453;50.852;7.102;2023-06-04T09:00:58;32.40;41.00
10802;DHT22;5453;50.852;7.102;2023-06-04T09:03:32;32.50;41.00
10802;DHT22;5453;50.852;7.102;2023-06-04T09:06:05;32.70;41.10
10802;DHT22;5453;50.852;7.102;2023-06-04T09:08:39;32.50;40.00
10802;DHT22;5453;50.852;7.102;2023-06-04T09:11:15;32.40;40.00
10802;DHT22;5453;50.852;7.102;2023-06-04T09:13:48;32.40;39.60
10802;DHT22;5453;50.852;7.102;2023-06-04T09:16:20;32.40;39.90
10802;DHT22;5453;50.852;7.102;2023-06-04T09:18:54;32.50;39.90
10802;DHT22;5453;50.852;7.102;2023-06-04T09:21:26;32.60;39.70
10802;DHT22;5453;50.852;7.102;2023-06-04T09:23:58;32.50;39.50
10802;DHT22;5453;50.852;7.102;2023-06-04T09:26:30;32.30;39.50
10802;DHT22;5453;50.852;7.102;2023-06-04T09:29:05;31.80;39.40
10802;DHT22;5453;50.852;7.102;2023-06-04T09:31:37;31.50;40.30
10802;DHT22;5453;50.852;7.102;2023-06-04T09:34:12;31.00;40.80
10802;DHT22;5453;50.852;7.102;2023-06-04T09:36:44;30.40;40.30
10802;DHT22;5453;50.852;7.102;2023-06-04T09:39:17;29.70;41.50
10802;DHT22;5453;50.852;7.102;2023-06-04T09:41:57;29.00;41.70
10802;DHT22;5453;50.852;7.102;2023-06-04T09:44:31;28.60;42.00
10802;DHT22;5453;50.852;7.102;2023-06-04T09:47:03;28.20;42.50
10802;DHT22;5453;50.852;7.102;2023-06-04T09:49:41;28.20;43.40
10802;DHT22;5453;50.852;7.102;2023-06-04T09:52:14;28.10;44.10
10802;DHT22;5453;50.852;7.102;2023-06-04T09:54:46;27.80;44.40
10802;DHT22;5453;50.852;7.102;2023-06-04T09:57:18;27.50;44.10
10802;DHT22;5453;50.852;7.102;2023-06-04T09:59:53;27.50;44.50
10802;DHT22;5453;50.852;7.102;2023-06-04T10:02:27;27.40;44.20
10802;DHT22;5453;50.852;7.102;2023-06-04T10:05:03;27.40;43.80
10802;DHT22;5453;50.852;7.102;2023-06-04T10:07:39;27.40;44.10
10802;DHT22;5453;50.852;7.102;2023-06-04T10:10:14;27.50;43.90
10802;DHT22;5453;50.852;7.102;2023-06-04T10:12:50;27.30;43.60
10802;DHT22;5453;50.852;7.102;2023-06-04T10:15:25;27.30;43.30
10802;DHT22;5453;50.852;7.102;2023-06-04T10:17:57;27.20;43.00
10802;DHT22;5453;50.852;7.102;2023-06-04T10:20:31;27.10;43.50
10802;DHT22;5453;50.852;7.102;2023-06-04T10:23:03;27.00;43.40
10802;DHT22;5453;50.852;7.102;2023-06-04T10:25:35;27.00;43.20
10802;DHT22;5453;50.852;7.102;2023-06-04T10:28:08;27.10;43.10
10802;DHT22;5453;50.852;7.102;2023-06-04T10:30:40;27.10;42.90
10802;DHT22;5453;50.852;7.102;2023-06-04T10:33:12;27.10;43.30
10802;DHT22;5453;50.852;7.102;2023-06-04T10:35:46;27.10;43.10
10802;DHT22;5453;50.852;7.102;2023-06-04T10:38:18;27.20;42.90
10802;DHT22;5453;50.852;7.102;2023-06-04T10:40:52;27.20;43.00
10802;DHT22;5453;50.852;7.102;2023-06-04T10:43:29;27.20;42.90
10802;DHT22;5453;50.852;7.102;2023-06-04T10:46:11;27.30;42.40
10802;DHT22;5453;50.852;7.102;2023-06-04T10:48:48;27.10;43.40
10802;DHT22;5453;50.852;7.102;2023-06-04T10:51:30;26.90;42.80
10802;DHT22;5453;50.852;7.102;2023-06-04T10:54:03;26.60;41.50
10802;DHT22;5453;50.852;7.102;2023-06-04T10:56:36;26.60;42.20
10802;DHT22;5453;50.852;7.102;2023-06-04T10:59:15;26.70;42.10
10802;DHT22;5453;50.852;7.102;2023-06-04T11:01:48;26.80;43.10
10802;DHT22;5453;50.852;7.102;2023-06-04T11:04:21;26.90;42.90
10802;DHT22;5453;50.852;7.102;2023-06-04T11:07:02;27.10;43.80
10802;DHT22;5453;50.852;7.102;2023-06-04T11:09:35;27.20;43.10
10802;DHT22;5453;50.852;7.102;2023-06-04T11:12:07;27.20;43.20
10802;DHT22;5453;50.852;7.102;2023-06-04T11:14:39;27.20;42.30
10802;DHT22;5453;50.852;7.102;2023-06-04T11:17:12;27.20;41.90
10802;DHT22;5453;50.852;7.102;2023-06-04T11:19:45;27.20;42.60
10802;DHT22;5453;50.852;7.102;2023-06-04T11:22:19;27.20;43.00
10802;DHT22;5453;50.852;7.102;2023-06-04T11:24:56;27.30;43.00
10802;DHT22;5453;50.852;7.102;2023-06-04T11:27:33;27.30;42.80
10802;DHT22;5453;50.852;7.102;2023-06-04T11:30:07;27.40;42.80
10802;DHT22;5453;50.852;7.102;2023-06-04T11:32:40;27.40;43.20
10802;DHT22;5453;50.852;7.102;2023-06-04T11:35:12;27.40;43.40
10802;DHT22;5453;50.852;7.102;2023-06-04T11:37:54;27.50;43.60
10802;DHT22;5453;50.852;7.102;2023-06-04T11:40:27;27.60;43.50
10802;DHT22;5453;50.852;7.102;2023-06-04T11:42:59;27.60;43.20
10802;DHT22;5453;50.852;7.102;2023-06-04T11:45:31;27.70;43.10
10802;DHT22;5453;50.852;7.102;2023-06-04T11:48:05;27.60;43.00
10802;DHT22;5453;50.852;7.102;2023-06-04T11:50:37;27.60;42.90
10802;DHT22;5453;50.852;7.102;2023-06-04T11:53:11;27.60;43.50
10802;DHT22;5453;50.852;7.102;2023-06-04T11:55:43;27.60;43.10
10802;DHT22;5453;50.852;7.102;2023-06-04T11:58:15;27.50;42.20
10802;DHT22;5453;50.852;7.102;2023-06-04T12:00:48;27.50;42.30
10802;DHT22;5453;50.852;7.102;2023-06-04T12:03:33;27.40;41.90
10802;DHT22;5453;50.852;7.102;2023-06-04T12:06:13;27.40;43.80
10802;DHT22;5453;50.852;7.102;2023-06-04T12:08:50;27.40;42.80
10802;DHT22;5453;50.852;7.102;2023-06-04T12:11:27;27.20;42.80
10802;DHT22;5453;50.852;7.102;2023-06-04T12:14:04;27.10;43.00
10802;DHT22;5453;50.852;7.102;2023-06-04T12:16:37;27.10;43.60
10802;DHT22;5453;50.852;7.102;2023-06-04T12:19:10;27.10;43.50
10802;DHT22;5453;50.852;7.102;2023-06-04T12:21:43;27.10;43.40
10802;DHT22;5453;50.852;7.102;2023-06-04T12:24:16;27.20;42.80
10802;DHT22;5453;50.852;7.102;2023-06-04T12:26:48;27.20;42.50
10802;DHT22;5453;50.852;7.102;2023-06-04T12:29:21;27.20;42.30
10802;DHT22;5453;50.852;7.102;2023-06-04T12:32:01;27.20;42.30
10802;DHT22;5453;50.852;7.102;2023-06-04T12:34:34;27.20;42.20
10802;DHT22;5453;50.852;7.102;2023-06-04T12:37:07;27.20;42.30
10802;DHT22;5453;50.852;7.102;2023-06-04T12:39:41;27.20;42.70
10802;DHT22;5453;50.852;7.102;2023-06-04T12:42:13;27.30;41.80
10802;DHT22;5453;50.852;7.102;2023-06-04T12:44:46;27.10;40.40
10802;DHT22;5453;50.852;7.102;2023-06-04T12:47:18;27.00;41.10
10802;DHT22;5453;50.852;7.102;2023-06-04T12:49:51;26.90;40.50
10802;DHT22;5453;50.852;7.102;2023-06-04T12:52:23;26.90;41.70
10802;DHT22;5453;50.852;7.102;2023-06-04T12:54:57;26.90;40.70
10802;DHT22;5453;50.852;7.102;2023-06-04T12:57:29;26.80;42.50
10802;DHT22;5453;50.852;7.102;2023-06-04T13:00:01;26.80;41.40
10802;DHT22;5453;50.852;7.102;2023-06-04T13:02:34;26.60;42.30
10802;DHT22;5453;50.852;7.102;2023-06-04T13:05:07;26.70;41.50
10802;DHT22;5453;50.852;7.102;2023-06-04T13:07:39;26.80;41.90
10802;DHT22;5453;50.852;7.102;2023-06-04T13:10:12;26.70;40.80
10802;DHT22;5453;50.852;7.102;2023-06-04T13:12:44;26.70;41.80
10802;DHT22;5453;50.852;7.102;2023-06-04T13:15:17;26.70;42.20
10802;DHT22;5453;50.852;7.102;2023-06-04T13:17:49;26.70;41.80
10802;DHT22;5453;50.852;7.102;2023-06-04T13:20:21;26.80;41.60
10802;DHT22;5453;50.852;7.102;2023-06-04T13:22:53;26.80;42.00
10802;DHT22;5453;50.852;7.102;2023-06-04T13:25:26;26.90;41.10
10802;DHT22;5453;50.852;7.102;2023-06-04T13:27:59;26.80;42.70
10802;DHT22;5453;50.852;7.102;2023-06-04T13:30:31;26.80;42.00
10802;DHT22;5453;50.852;7.102;2023-06-04T13:33:03;26.70;41.90
10802;DHT22;5453;50.852;7.102;2023-06-04T13:35:36;26.80;41.70
10802;DHT22;5453;50.852;7.102;2023-06-04T13:38:08;26.80;42.30
10802;DHT22;5453;50.852;7.102;2023-06-04T13:40:42;26.80;42.70
10802;DHT22;5453;50.852;7.102;2023-06-04T13:43:15;26.80;42.30
10802;DHT22;5453;50.852;7.102;2023-06-04T13:45:47;26.80;42.30
10802;DHT22;5453;50.852;7.102;2023-06-04T13:48:20;26.70;42.60
10802;DHT22;5453;50.852;7.102;2023-06-04T13:50:53;26.60;41.90
10802;DHT22;5453;50.852;7.102;2023-06-04T13:53:25;26.50;42.10
10802;DHT22;5453;50.852;7.102;2023-06-04T13:55:58;26.60;43.00
10802;DHT22;5453;50.852;7.102;2023-06-04T13:58:30;26.70;43.20
10802;DHT22;5453;50.852;7.102;2023-06-04T14:01:02;26.70;43.00
10802;DHT22;5453;50.852;7.102;2023-06-04T14:03:35;26.70;43.60
10802;DHT22;5453;50.852;7.102;2023-06-04T14:06:07;26.60;43.90
10802;DHT22;5453;50.852;7.102;2023-06-04T14:08:39;26.50;43.90
10802;DHT22;5453;50.852;7.102;2023-06-04T14:11:12;26.60;44.50
10802;DHT22;5453;50.852;7.102;2023-06-04T14:13:44;26.60;44.30
10802;DHT22;5453;50.852;7.102;2023-06-04T14:16:16;26.70;43.30
10802;DHT22;5453;50.852;7.102;2023-06-04T14:18:49;26.70;43.10
10802;DHT22;5453;50.852;7.102;2023-06-04T14:21:21;26.70;43.10
10802;DHT22;5453;50.852;7.102;2023-06-04T14:23:53;26.70;43.60
10802;DHT22;5453;50.852;7.102;2023-06-04T14:26:28;26.70;43.20
10802;DHT22;5453;50.852;7.102;2023-06-04T14:29:01;26.60;43.00
10802;DHT22;5453;50.852;7.102;2023-06-04T14:31:33;26.60;43.90
10802;DHT22;5453;50.852;7.102;2023-06-04T14:34:05;26.60;43.90
10802;DHT22;5453;50.852;7.102;2023-06-04T14:36:39;26.50;43.00
10802;DHT22;5453;50.852;7.102;2023-06-04T14:39:12;26.50;42.80
10802;DHT22;5453;50.852;7.102;2023-06-04T14:41:45;26.40;42.40
10802;DHT22;5453;50.852;7.102;2023-06-04T14:44:17;26.50;42.70
10802;DHT22;5453;50.852;7.102;2023-06-04T14:46:51;26.50;43.20
10802;DHT22;5453;50.852;7.102;2023-06-04T14:49:23;26.40;43.10
10802;DHT22;5453;50.852;7.102;2023-06-04T14:51:56;26.50;43.10
10802;DHT22;5453;50.852;7.102;2023-06-04T14:54:28;26.50;43.10
10802;DHT22;5453;50.852;7.102;2023-06-04T14:57:02;26.50;43.60
10802;DHT22;5453;50.852;7.102;2023-06-04T14:59:36;26.50;43.60
10802;DHT22;5453;50.852;7.102;2023-06-04T15:02:09;26.40;44.90
10802;DHT22;5453;50.852;7.102;2023-06-04T15:04:41;26.50;44.50
10802;DHT22;5453;50.852;7.102;2023-06-04T15:07:15;26.50;45.00
10802;DHT22;5453;50.852;7.102;2023-06-04T15:09:47;26.60;45.10
10802;DHT22;5453;50.852;7.102;2023-06-04T15:12:21;26.60;44.90
10802;DHT22;5453;50.852;7.102;2023-06-04T15:14:53;26.50;44.70
10802;DHT22;5453;50.852;7.102;2023-06-04T15:17:25;26.40;44.10
10802;DHT22;5453;50.852;7.102;2023-06-04T15:19:58;26.40;44.10
10802;DHT22;5453;50.852;7.102;2023-06-04T15:22:30;26.50;44.50
10802;DHT22;5453;50.852;7.102;2023-06-04T15:25:03;26.50;43.40
10802;DHT22;5453;50.852;7.102;2023-06-04T15:27:37;26.50;42.90
10802;DHT22;5453;50.852;7.102;2023-06-04T15:30:09;26.40;42.40
10802;DHT22;5453;50.852;7.102;2023-06-04T15:32:42;26.40;42.70
10802;DHT22;5453;50.852;7.102;2023-06-04T15:35:14;26.30;42.90
10802;DHT22;5453;50.852;7.102;2023-06-04T15:37:46;26.30;42.80
10802;DHT22;5453;50.852;7.102;2023-06-04T15:40:19;26.30;44.10
10802;DHT22;5453;50.852;7.102;2023-06-04T15:42:53;26.20;44.70
10802;DHT22;5453;50.852;7.102;2023-06-04T15:45:25;26.20;45.00
10802;DHT22;5453;50.852;7.102;2023-06-04T15:47:58;26.20;45.80
10802;DHT22;5453;50.852;7.102;2023-06-04T15:50:30;26.20;46.90
10802;DHT22;5453;50.852;7.102;2023-06-04T15:53:02;26.20;46.40
10802;DHT22;5453;50.852;7.102;2023-06-04T15:55:35;26.10;46.40
10802;DHT22;5453;50.852;7.102;2023-06-04T15:58:08;26.00;46.70
10802;DHT22;5453;50.852;7.102;2023-06-04T16:00:40;26.00;46.60
10802;DHT22;5453;50.852;7.102;2023-06-04T16:03:13;25.80;46.50
10802;DHT22;5453;50.852;7.102;2023-06-04T16:05:45;25.80;46.80
10802;DHT22;5453;50.852;7.102;2023-06-04T16:08:17;25.80;47.00
10802;DHT22;5453;50.852;7.102;2023-06-04T16:10:51;25.70;47.50
10802;DHT22;5453;50.852;7.102;2023-06-04T16:13:24;25.70;47.70
10802;DHT22;5453;50.852;7.102;2023-06-04T16:15:57;25.70;48.10
10802;DHT22;5453;50.852;7.102;2023-06-04T16:18:31;25.60;48.10
10802;DHT22;5453;50.852;7.102;2023-06-04T16:21:04;25.60;48.40
10802;DHT22;5453;50.852;7.102;2023-06-04T16:23:36;25.60;49.00